createdAt,value
2019-03-11T00:00:42.628Z,18.57
2019-03-11T00:03:10.915Z,16.30
2019-03-11T00:05:39.167Z,15.03
2019-03-11T00:08:07.381Z,14.27
2019-03-11T00:10:35.661Z,12.87
2019-03-11T00:13:04.061Z,15.23
2019-03-11T00:15:32.318Z,24.47
2019-03-11T00:18:00.496Z,20.07
2019-03-11T00:20:28.721Z,15.20
2019-03-11T00:22:56.937Z,12.47
2019-03-11T00:25:25.138Z,13.63
2019-03-11T00:27:53.336Z,17.37
2019-03-11T00:30:21.548Z,13.63
2019-03-11T00:32:49.777Z,17.03
2019-03-11T00:35:17.969Z,22.73
2019-03-11T00:37:46.194Z,20.20
2019-03-11T00:40:14.947Z,17.27
2019-03-11T00:42:43.178Z,15.80
2019-03-11T00:45:12.445Z,15.27
2019-03-11T00:47:40.657Z,17.10
2019-03-11T00:50:09.843Z,14.67
2019-03-11T00:52:38.092Z,20.13
2019-03-11T00:55:10.265Z,17.07
2019-03-11T00:57:38.460Z,12.80
2019-03-11T01:00:17.522Z,15.60
2019-03-11T01:02:45.722Z,10.63
2019-03-11T01:05:14.573Z,17.50
2019-03-11T01:07:42.748Z,18.70
2019-03-11T01:10:10.932Z,14.40
2019-03-11T01:12:39.154Z,13.90
2019-03-11T01:15:08.585Z,12.87
2019-03-11T01:17:36.809Z,15.80
2019-03-11T01:20:06.281Z,23.53
2019-03-11T01:22:34.491Z,12.63
2019-03-11T01:25:04.777Z,15.87
2019-03-11T01:27:32.591Z,13.70
2019-03-11T01:30:00.789Z,18.63
2019-03-11T01:32:28.982Z,12.43
2019-03-11T01:34:57.193Z,12.53
2019-03-11T01:37:25.410Z,9.70
2019-03-11T01:39:53.617Z,15.50
2019-03-11T01:42:21.826Z,19.73
2019-03-11T01:44:50.968Z,17.77
2019-03-11T01:47:19.148Z,16.77
2019-03-11T01:49:47.368Z,17.90
2019-03-11T01:52:15.563Z,16.67
2019-03-11T01:54:43.748Z,12.40
2019-03-11T01:57:11.942Z,20.33
2019-03-11T01:59:40.120Z,14.37
2019-03-11T02:02:08.381Z,15.17
2019-03-11T02:04:36.628Z,19.30
2019-03-11T02:07:04.838Z,20.90
2019-03-11T02:09:33.052Z,12.13
2019-03-11T02:12:01.265Z,16.90
2019-03-11T02:14:29.519Z,15.23
2019-03-11T02:16:57.727Z,12.10
2019-03-11T02:19:25.985Z,14.10
2019-03-11T02:21:54.160Z,14.33
2019-03-11T02:24:23.640Z,11.50
2019-03-11T02:26:51.871Z,13.67
2019-03-11T02:29:20.163Z,10.50
2019-03-11T02:31:48.344Z,11.23
2019-03-11T02:34:16.561Z,5.63
2019-03-11T02:36:44.738Z,6.57
2019-03-11T02:39:13.214Z,8.30
2019-03-11T02:41:41.409Z,8.43
2019-03-11T02:44:09.625Z,9.93
2019-03-11T02:46:37.863Z,8.90
2019-03-11T02:49:06.046Z,10.27
2019-03-11T02:51:34.293Z,7.70
2019-03-11T02:54:02.533Z,11.20
2019-03-11T02:56:30.749Z,8.30
2019-03-11T02:58:58.937Z,9.93
2019-03-11T03:01:37.711Z,9.90
2019-03-11T03:04:07.541Z,11.00
2019-03-11T03:06:35.754Z,12.67
2019-03-11T03:09:05.557Z,11.30
2019-03-11T03:11:33.758Z,12.77
2019-03-11T03:14:01.971Z,11.00
2019-03-11T03:16:30.185Z,13.87
2019-03-11T03:18:58.476Z,11.97
2019-03-11T03:21:26.781Z,12.40
2019-03-11T03:23:54.960Z,11.65
2019-03-11T03:26:23.193Z,10.80
2019-03-11T03:28:51.375Z,12.30
2019-03-11T03:31:19.603Z,9.60
2019-03-11T03:33:47.991Z,13.50
2019-03-11T03:36:16.275Z,10.25
2019-03-11T03:38:44.499Z,10.03
2019-03-11T03:41:12.709Z,10.00
2019-03-11T03:43:41.003Z,8.73
2019-03-11T03:46:18.430Z,11.40
2019-03-11T03:48:39.275Z,13.10
2019-03-11T03:51:07.584Z,9.75
2019-03-11T03:53:35.858Z,9.85
2019-03-11T03:56:04.048Z,10.40
2019-03-11T03:58:32.263Z,8.80
2019-03-11T04:01:00.549Z,9.47
2019-03-11T04:03:28.751Z,11.30
2019-03-11T04:05:56.998Z,12.93
2019-03-11T04:08:25.172Z,9.23
2019-03-11T04:10:53.380Z,11.57
2019-03-11T04:13:21.558Z,13.87
2019-03-11T04:15:49.840Z,10.70
2019-03-11T04:18:18.144Z,13.50
2019-03-11T04:20:46.411Z,14.17
2019-03-11T04:23:14.616Z,12.73
2019-03-11T04:25:42.800Z,11.67
2019-03-11T04:28:11.105Z,13.90
2019-03-11T04:30:39.315Z,18.67
2019-03-11T04:33:07.584Z,12.80
2019-03-11T04:35:35.761Z,16.53
2019-03-11T04:38:04.012Z,13.60
2019-03-11T04:40:32.208Z,14.80
2019-03-11T04:43:00.421Z,14.30
2019-03-11T04:45:28.640Z,15.30
2019-03-11T04:47:56.833Z,15.35
2019-03-11T04:50:25.056Z,16.27
2019-03-11T04:52:53.241Z,13.40
2019-03-11T04:55:21.551Z,19.53
2019-03-11T04:57:51.363Z,15.63
2019-03-11T05:00:20.708Z,15.23
2019-03-11T05:02:48.929Z,12.03
2019-03-11T05:05:17.100Z,9.93
2019-03-11T05:07:45.336Z,11.80
2019-03-11T05:10:16.190Z,13.20
2019-03-11T05:12:43.908Z,13.10
2019-03-11T05:15:12.866Z,10.70
2019-03-11T05:17:41.301Z,13.50
2019-03-11T05:20:10.848Z,11.10
2019-03-11T05:22:39.057Z,9.60
2019-03-11T05:25:08.396Z,10.05
2019-03-11T05:27:36.621Z,10.57
2019-03-11T05:30:06.487Z,10.00
2019-03-11T05:32:34.701Z,12.50
2019-03-11T05:35:03.092Z,12.73
2019-03-11T05:37:31.349Z,13.03
2019-03-11T05:39:59.613Z,16.53
2019-03-11T05:42:27.962Z,10.43
2019-03-11T05:44:56.163Z,12.70
2019-03-11T05:47:24.359Z,14.93
2019-03-11T05:49:52.538Z,12.03
2019-03-11T05:52:20.767Z,12.90
2019-03-11T05:54:49.133Z,14.67
2019-03-11T05:57:17.433Z,9.70
2019-03-11T05:59:45.655Z,10.13
2019-03-11T06:02:13.893Z,14.70
2019-03-11T06:04:42.117Z,8.97
2019-03-11T06:07:10.295Z,14.13
2019-03-11T06:09:38.529Z,14.67
2019-03-11T06:12:06.729Z,10.37
2019-03-11T06:14:34.937Z,15.93
2019-03-11T06:17:03.195Z,14.87
2019-03-11T06:19:31.438Z,11.13
2019-03-11T06:22:01.285Z,16.63
2019-03-11T06:24:30.551Z,13.70
2019-03-11T06:26:59.028Z,14.50
2019-03-11T06:29:30.857Z,12.80
2019-03-11T06:31:57.127Z,12.60
2019-03-11T06:34:25.424Z,14.20
2019-03-11T06:36:53.622Z,23.57
2019-03-11T06:39:21.847Z,12.07
2019-03-11T06:41:50.054Z,12.27
2019-03-11T06:44:18.244Z,12.13
2019-03-11T06:46:46.457Z,10.97
2019-03-11T06:49:14.681Z,11.57
2019-03-11T06:51:44.019Z,9.93
2019-03-11T06:54:12.233Z,9.67
2019-03-11T06:56:40.435Z,9.00
2019-03-11T06:59:08.661Z,11.77
2019-03-11T07:01:36.912Z,10.53
2019-03-11T07:04:05.121Z,10.80
2019-03-11T07:06:33.330Z,9.37
2019-03-11T07:09:01.527Z,9.40
2019-03-11T07:11:29.801Z,10.90
2019-03-11T07:13:58.013Z,14.30
2019-03-11T07:16:26.270Z,12.00
2019-03-11T07:18:54.482Z,14.30
2019-03-11T07:21:22.688Z,9.27
2019-03-11T07:23:50.980Z,13.10
2019-03-11T07:26:19.194Z,8.50
2019-03-11T07:28:47.465Z,11.40
2019-03-11T07:31:15.677Z,16.00
2019-03-11T07:33:43.902Z,7.37
2019-03-11T07:36:12.226Z,9.23
2019-03-11T07:38:40.460Z,12.93
2019-03-11T07:41:08.675Z,17.23
2019-03-11T07:43:36.855Z,16.63
2019-03-11T07:46:05.040Z,7.60
2019-03-11T07:48:33.258Z,10.40
2019-03-11T07:51:01.515Z,9.40
2019-03-11T07:53:29.716Z,14.33
2019-03-11T07:55:57.941Z,15.37
2019-03-11T07:58:26.121Z,8.17
2019-03-11T08:00:54.447Z,8.67
2019-03-11T08:03:22.720Z,11.10
2019-03-11T08:05:50.956Z,10.10
2019-03-11T08:08:19.146Z,16.30
2019-03-11T08:10:47.328Z,9.20
2019-03-11T08:13:15.557Z,11.53
2019-03-11T08:15:43.925Z,12.90
2019-03-11T08:18:12.115Z,10.33
2019-03-11T08:20:40.368Z,9.60
2019-03-11T08:23:08.606Z,9.70
2019-03-11T08:25:36.854Z,12.60
2019-03-11T08:28:05.133Z,9.13
2019-03-11T08:30:33.338Z,9.83
2019-03-11T08:33:01.515Z,10.50
2019-03-11T08:35:29.708Z,8.90
2019-03-11T08:37:57.932Z,10.03
2019-03-11T08:40:26.149Z,15.40
2019-03-11T08:42:54.365Z,9.17
2019-03-11T08:45:22.572Z,6.87
2019-03-11T08:47:50.853Z,7.27
2019-03-11T08:50:19.021Z,6.67
2019-03-11T08:52:47.247Z,9.50
2019-03-11T08:55:15.541Z,4.80
2019-03-11T08:57:43.724Z,9.27
2019-03-11T09:00:16.409Z,9.57
2019-03-11T09:02:44.607Z,11.00
2019-03-11T09:05:12.997Z,8.13
2019-03-11T09:07:41.216Z,8.43
2019-03-11T09:10:11.285Z,7.30
2019-03-11T09:12:39.473Z,14.57
2019-03-11T09:15:09.273Z,11.30
2019-03-11T09:17:37.486Z,10.77
2019-03-11T09:20:07.453Z,7.73
2019-03-11T09:22:35.669Z,11.50
2019-03-11T09:25:05.218Z,14.13
2019-03-11T09:27:33.404Z,7.90
2019-03-11T09:30:01.585Z,7.47
2019-03-11T09:32:29.812Z,13.40
2019-03-11T09:34:57.996Z,8.47
2019-03-11T09:37:26.235Z,8.33
2019-03-11T09:39:54.503Z,11.83
2019-03-11T09:42:22.776Z,8.83
2019-03-11T09:44:50.972Z,9.33
2019-03-11T09:47:19.143Z,8.23
2019-03-11T09:49:47.356Z,8.40
2019-03-11T09:52:15.569Z,12.67
2019-03-11T09:54:43.815Z,9.73
2019-03-11T09:57:12.068Z,8.77
2019-03-11T09:59:40.298Z,12.20
2019-03-11T10:02:08.484Z,8.50
2019-03-11T10:04:37.609Z,4.10
2019-03-11T10:07:05.788Z,7.43
2019-03-11T10:09:33.999Z,10.50
2019-03-11T10:12:02.239Z,5.27
2019-03-11T10:14:30.559Z,5.93
2019-03-11T10:16:58.757Z,5.40
2019-03-11T10:19:27.077Z,6.30
2019-03-11T10:21:55.289Z,11.57
2019-03-11T10:24:23.486Z,8.70
2019-03-11T10:26:51.697Z,7.60
2019-03-11T10:29:19.898Z,10.10
2019-03-11T10:31:48.121Z,8.60
2019-03-11T10:34:16.324Z,5.77
2019-03-11T10:36:44.525Z,7.53
2019-03-11T10:39:12.737Z,7.53
2019-03-11T10:41:40.945Z,8.43
2019-03-11T10:44:09.147Z,13.63
2019-03-11T10:46:37.389Z,5.17
2019-03-11T10:49:05.564Z,9.57
2019-03-11T10:51:33.737Z,8.30
2019-03-11T10:54:02.857Z,8.43
2019-03-11T10:56:31.124Z,5.40
2019-03-11T10:58:59.307Z,7.33
2019-03-11T11:01:27.585Z,6.90
2019-03-11T11:03:55.772Z,9.20
2019-03-11T11:06:23.997Z,10.23
2019-03-11T11:08:52.210Z,7.83
2019-03-11T11:11:20.440Z,8.37
2019-03-11T11:13:48.672Z,8.30
2019-03-11T11:16:16.843Z,7.10
2019-03-11T11:18:45.068Z,4.17
2019-03-11T11:21:13.249Z,5.30
2019-03-11T11:23:41.457Z,8.23
2019-03-11T11:26:09.669Z,8.50
2019-03-11T11:28:37.901Z,10.80
2019-03-11T11:31:06.297Z,8.07
2019-03-11T11:33:35.477Z,13.37
2019-03-11T11:36:03.721Z,9.87
2019-03-11T11:38:31.888Z,11.03
2019-03-11T11:41:00.130Z,10.00
2019-03-11T11:43:28.326Z,11.83
2019-03-11T11:45:56.573Z,12.23
2019-03-11T11:48:24.779Z,10.73
2019-03-11T11:50:53.010Z,11.37
2019-03-11T11:53:21.184Z,5.47
2019-03-11T11:55:57.410Z,8.23
2019-03-11T11:58:20.313Z,9.10
2019-03-11T12:00:50.226Z,7.17
2019-03-11T12:03:18.413Z,8.83
2019-03-11T12:05:46.617Z,7.20
2019-03-11T12:08:14.792Z,11.35
2019-03-11T12:10:43.014Z,8.90
2019-03-11T12:13:11.258Z,17.00
2019-03-11T12:15:39.445Z,10.20
2019-03-11T12:18:07.785Z,17.73
2019-03-11T12:20:36.033Z,12.93
2019-03-11T12:23:04.218Z,13.80
2019-03-11T12:25:32.410Z,14.10
2019-03-11T12:28:00.580Z,14.00
2019-03-11T12:30:29.410Z,10.77
2019-03-11T12:32:57.850Z,11.23
2019-03-11T12:35:26.426Z,12.63
2019-03-11T12:37:54.697Z,11.27
2019-03-11T12:40:23.096Z,12.97
2019-03-11T12:42:51.284Z,13.53
2019-03-11T12:45:20.065Z,15.07
2019-03-11T12:47:48.346Z,15.03
2019-03-11T12:50:24.151Z,11.73
2019-03-11T12:52:52.501Z,12.33
2019-03-11T12:55:21.550Z,11.77
2019-03-11T12:57:50.226Z,11.10
2019-03-11T13:00:19.172Z,11.00
2019-03-11T13:02:47.393Z,8.30
2019-03-11T13:05:16.085Z,15.03
2019-03-11T13:07:44.305Z,10.47
2019-03-11T13:10:14.036Z,10.30
2019-03-11T13:12:42.224Z,9.60
2019-03-11T13:15:11.479Z,12.67
2019-03-11T13:17:39.688Z,12.00
2019-03-11T13:20:09.457Z,10.60
2019-03-11T13:22:37.669Z,7.50
2019-03-11T13:25:06.804Z,7.13
2019-03-11T13:27:35.026Z,6.77
2019-03-11T13:30:04.533Z,9.40
2019-03-11T13:32:32.765Z,6.27
2019-03-11T13:35:00.951Z,10.67
2019-03-11T13:37:29.197Z,11.20
2019-03-11T13:39:57.409Z,6.90
2019-03-11T13:42:25.611Z,5.73
2019-03-11T13:44:53.788Z,6.80
2019-03-11T13:47:21.993Z,8.03
2019-03-11T13:49:50.335Z,9.13
2019-03-11T13:52:18.568Z,3.53
2019-03-11T13:54:46.768Z,4.57
2019-03-11T13:57:15.032Z,5.00
2019-03-11T13:59:43.233Z,3.93
2019-03-11T14:02:11.482Z,5.40
2019-03-11T14:04:41.562Z,3.90
2019-03-11T14:07:09.561Z,1.77
2019-03-11T14:09:37.805Z,2.33
2019-03-11T14:12:05.974Z,6.40
2019-03-11T14:14:34.212Z,3.00
2019-03-11T14:17:02.386Z,3.93
2019-03-11T14:19:30.573Z,2.60
2019-03-11T14:21:58.784Z,3.27
2019-03-11T14:24:27.020Z,4.17
2019-03-11T14:26:55.221Z,3.93
2019-03-11T14:29:24.401Z,3.43
2019-03-11T14:31:52.692Z,4.80
2019-03-11T14:34:20.908Z,3.73
2019-03-11T14:36:49.092Z,4.20
2019-03-11T14:39:17.294Z,3.33
2019-03-11T14:41:45.537Z,1.73
2019-03-11T14:44:13.721Z,3.20
2019-03-11T14:46:41.896Z,4.37
2019-03-11T14:49:10.080Z,2.60
2019-03-11T14:51:38.404Z,2.40
2019-03-11T14:54:06.579Z,4.23
2019-03-11T14:56:34.781Z,4.20
2019-03-11T14:59:03.079Z,4.00
2019-03-11T15:01:31.263Z,3.40
2019-03-11T15:03:59.488Z,4.13
2019-03-11T15:06:27.661Z,4.30
2019-03-11T15:08:55.872Z,3.20
2019-03-11T15:11:24.120Z,2.40
2019-03-11T15:13:52.314Z,1.80
2019-03-11T15:16:20.606Z,3.20
2019-03-11T15:18:48.784Z,4.37
2019-03-11T15:21:17.862Z,2.37
2019-03-11T15:23:47.484Z,3.00
2019-03-11T15:26:24.826Z,1.60
2019-03-11T15:28:45.628Z,4.87
2019-03-11T15:31:13.825Z,2.80
2019-03-11T15:33:42.110Z,4.60
2019-03-11T15:36:10.280Z,3.87
2019-03-11T15:38:38.508Z,5.10
2019-03-11T15:41:06.680Z,2.77
2019-03-11T15:43:34.895Z,5.10
2019-03-11T15:46:03.084Z,5.15
2019-03-11T15:48:31.280Z,4.40
2019-03-11T15:50:59.493Z,3.93
2019-03-11T15:53:27.679Z,5.93
2019-03-11T15:55:55.882Z,4.13
2019-03-11T15:58:24.141Z,3.37
2019-03-11T16:00:52.393Z,2.63
2019-03-11T16:03:20.567Z,5.87
2019-03-11T16:08:16.097Z,3.43
2019-03-11T16:10:44.267Z,4.83
2019-03-11T16:13:12.512Z,2.80
2019-03-11T16:15:40.728Z,2.60
2019-03-11T16:18:09.005Z,2.60
2019-03-11T16:20:37.249Z,5.20
2019-03-11T16:23:05.461Z,4.77
2019-03-11T16:25:33.692Z,4.30
2019-03-11T16:28:02.781Z,3.83
2019-03-11T16:30:30.988Z,7.90
2019-03-11T16:33:00.931Z,6.50
2019-03-11T16:35:29.189Z,2.60
2019-03-11T16:37:57.413Z,4.97
2019-03-11T16:40:25.659Z,3.80
2019-03-11T16:42:53.832Z,5.80
2019-03-11T16:45:22.036Z,4.70
2019-03-11T16:47:50.223Z,7.53
2019-03-11T16:50:19.304Z,4.23
2019-03-11T16:52:47.607Z,3.20
2019-03-11T16:55:19.005Z,6.47
2019-03-11T16:57:47.188Z,4.93
2019-03-11T17:00:16.949Z,4.10
2019-03-11T17:02:45.131Z,5.73
2019-03-11T17:05:13.692Z,3.73
2019-03-11T17:07:41.863Z,3.33
2019-03-11T17:10:11.408Z,5.00
2019-03-11T17:12:39.624Z,4.17
2019-03-11T17:15:08.336Z,5.13
2019-03-11T17:17:36.541Z,5.57
2019-03-11T17:20:06.498Z,3.97
2019-03-11T17:22:34.743Z,5.37
2019-03-11T17:25:02.924Z,5.33
2019-03-11T17:27:31.121Z,5.73
2019-03-11T17:29:59.334Z,4.40
2019-03-11T17:32:27.600Z,8.50
2019-03-11T17:34:55.809Z,4.00
2019-03-11T17:37:23.983Z,4.80
2019-03-11T17:39:52.380Z,5.67
2019-03-11T17:42:20.582Z,5.80
2019-03-11T17:44:48.793Z,5.67
2019-03-11T17:47:17.011Z,11.10
2019-03-11T17:49:45.199Z,10.50
2019-03-11T17:52:13.442Z,6.53
2019-03-11T17:54:41.773Z,5.33
2019-03-11T17:57:09.948Z,4.20
2019-03-11T17:59:38.124Z,7.07
2019-03-11T18:02:07.848Z,6.00
2019-03-11T18:04:36.036Z,7.90
2019-03-11T18:07:04.241Z,6.70
2019-03-11T18:09:32.419Z,8.93
2019-03-11T18:12:01.817Z,8.80
2019-03-11T18:14:29.997Z,11.83
2019-03-11T18:16:58.205Z,7.80
2019-03-11T18:19:26.411Z,9.80
2019-03-11T18:21:54.630Z,8.27
2019-03-11T18:24:23.181Z,9.30
2019-03-11T18:26:51.403Z,12.37
2019-03-11T18:29:19.644Z,12.13
2019-03-11T18:31:47.828Z,10.53
2019-03-11T18:34:16.037Z,9.20
2019-03-11T18:36:45.406Z,11.50
2019-03-11T18:39:13.683Z,10.03
2019-03-11T18:41:41.963Z,13.97
2019-03-11T18:44:10.165Z,8.13
2019-03-11T18:46:38.378Z,9.30
2019-03-11T18:49:06.559Z,11.50
2019-03-11T18:51:34.761Z,9.10
2019-03-11T18:54:04.085Z,8.43
2019-03-11T18:56:32.375Z,9.80
2019-03-11T18:59:00.627Z,10.27
2019-03-11T19:01:28.919Z,9.70
2019-03-11T19:03:57.178Z,9.30
2019-03-11T19:06:25.356Z,9.47
2019-03-11T19:08:53.633Z,7.90
2019-03-11T19:11:21.841Z,9.47
2019-03-11T19:13:50.071Z,11.67
2019-03-11T19:16:18.342Z,9.43
2019-03-11T19:18:46.634Z,11.10
2019-03-11T19:21:14.926Z,8.90
2019-03-11T19:23:43.197Z,12.23
2019-03-11T19:26:11.425Z,16.00
2019-03-11T19:28:39.671Z,19.20
2019-03-11T19:31:07.956Z,17.00
2019-03-11T19:33:36.200Z,17.90
2019-03-11T19:36:04.424Z,18.43
2019-03-11T19:38:32.610Z,15.00
2019-03-11T19:41:00.814Z,13.90
2019-03-11T19:43:29.409Z,9.63
2019-03-11T19:45:57.773Z,11.87
2019-03-11T19:48:25.987Z,9.00
2019-03-11T19:50:54.292Z,9.37
2019-03-11T19:53:22.514Z,12.13
2019-03-11T19:55:50.809Z,10.70
2019-03-11T19:58:19.072Z,10.63
2019-03-11T20:00:47.340Z,11.73
2019-03-11T20:03:26.609Z,13.97
2019-03-11T20:05:45.477Z,11.13
2019-03-11T20:08:13.750Z,10.00
2019-03-11T20:10:42.057Z,13.70
2019-03-11T20:13:10.270Z,9.30
2019-03-11T20:15:38.534Z,10.40
2019-03-11T20:18:06.799Z,11.03
2019-03-11T20:20:35.068Z,7.40
2019-03-11T20:23:03.509Z,8.10
2019-03-11T20:25:35.000Z,8.43
2019-03-11T20:28:03.315Z,5.70
2019-03-11T20:30:31.499Z,7.13
2019-03-11T20:32:59.795Z,6.63
2019-03-11T20:35:28.037Z,7.33
2019-03-11T20:37:56.532Z,8.03
2019-03-11T20:40:24.816Z,6.70
2019-03-11T20:42:53.204Z,6.63
2019-03-11T20:45:21.471Z,6.03
2019-03-11T20:47:49.834Z,9.17
2019-03-11T20:50:18.457Z,8.70
2019-03-11T20:52:48.006Z,10.70
2019-03-11T20:55:16.935Z,10.97
2019-03-11T20:57:45.237Z,9.63
2019-03-11T21:00:21.194Z,8.67
2019-03-11T21:02:49.468Z,7.20
2019-03-11T21:05:31.151Z,12.10
2019-03-11T21:07:59.424Z,9.10
2019-03-11T21:10:27.673Z,9.60
2019-03-11T21:12:56.033Z,9.50
2019-03-11T21:15:24.402Z,9.50
2019-03-11T21:17:52.733Z,11.03
2019-03-11T21:20:21.138Z,15.60
2019-03-11T21:22:49.960Z,10.57
2019-03-11T21:25:19.780Z,10.83
2019-03-11T21:27:48.031Z,8.83
2019-03-11T21:30:20.274Z,12.80
2019-03-11T21:32:48.894Z,11.33
2019-03-11T21:35:17.319Z,10.53
2019-03-11T21:37:45.601Z,12.13
2019-03-11T21:40:15.442Z,10.60
2019-03-11T21:42:43.881Z,15.80
2019-03-11T21:45:13.181Z,13.50
2019-03-11T21:47:41.666Z,10.93
2019-03-11T21:50:11.513Z,12.60
2019-03-11T21:52:40.859Z,14.90
2019-03-11T21:55:09.088Z,16.60
2019-03-11T21:57:37.420Z,16.50
2019-03-11T22:00:07.211Z,15.30
2019-03-11T22:02:35.441Z,21.33
2019-03-11T22:05:09.593Z,25.20
2019-03-11T22:07:37.776Z,19.83
2019-03-11T22:10:07.537Z,21.93
2019-03-11T22:12:35.761Z,21.87
2019-03-11T22:15:06.880Z,25.17
2019-03-11T22:17:36.055Z,21.80
2019-03-11T22:20:05.833Z,24.30
2019-03-11T22:22:34.300Z,27.17
2019-03-11T22:25:02.525Z,27.63
2019-03-11T22:27:30.832Z,20.93
2019-03-11T22:29:59.049Z,24.13
2019-03-11T22:32:27.235Z,24.77
2019-03-11T22:34:55.445Z,23.57
2019-03-11T22:37:23.648Z,23.93
2019-03-11T22:39:51.881Z,20.53
2019-03-11T22:42:20.072Z,20.87
2019-03-11T22:44:48.301Z,18.00
2019-03-11T22:47:16.513Z,21.97
2019-03-11T22:49:44.741Z,19.60
2019-03-11T22:52:12.969Z,23.33
2019-03-11T22:54:41.219Z,19.30
2019-03-11T22:57:09.515Z,22.20
2019-03-11T22:59:37.743Z,22.47
2019-03-11T23:02:06.414Z,24.87
2019-03-11T23:04:34.653Z,22.20
2019-03-11T23:07:02.825Z,25.07
2019-03-11T23:09:31.039Z,24.97
2019-03-11T23:11:59.326Z,24.00
2019-03-11T23:14:28.492Z,22.73
2019-03-11T23:16:56.713Z,29.40
2019-03-11T23:19:24.893Z,21.90
2019-03-11T23:21:53.144Z,22.57
2019-03-11T23:24:21.320Z,23.23
2019-03-11T23:26:49.544Z,21.47
2019-03-11T23:29:17.765Z,23.10
2019-03-11T23:31:45.964Z,20.83
2019-03-11T23:34:14.166Z,24.27
2019-03-11T23:36:42.371Z,27.30
2019-03-11T23:39:10.641Z,23.73
2019-03-11T23:41:38.862Z,24.20
2019-03-11T23:44:07.035Z,21.67
2019-03-11T23:46:35.295Z,26.73
2019-03-11T23:49:03.629Z,22.87
2019-03-11T23:51:31.834Z,25.00
2019-03-11T23:54:00.032Z,32.43
2019-03-11T23:56:28.219Z,25.77
2019-03-11T23:58:56.429Z,24.07
